sensor_id;sensor_type;location;lat;lon;timestamp;pressure;altitude;pressure_sealevel;temperature;humidity
84904;BME280;75168;52.096;5.214;2024-02-23T00:01:51;98713.97;;;8.44;63.21
84904;BME280;75168;52.096;5.214;2024-02-23T00:04:17;98703.47;;;8.50;63.36
84904;BME280;75168;52.096;5.214;2024-02-23T00:06:44;98709.47;;;8.56;63.44
84904;BME280;75168;52.096;5.214;2024-02-23T00:09:10;98710.25;;;8.63;63.44
84904;BME280;75168;52.096;5.214;2024-02-23T00:11:35;98716.22;;;8.70;63.52
84904;BME280;75168;52.096;5.214;2024-02-23T00:14:06;98726.50;;;8.76;63.39
84904;BME280;75168;52.096;5.214;2024-02-23T00:16:37;98726.41;;;8.82;63.50
84904;BME280;75168;52.096;5.214;2024-02-23T00:19:03;98723.75;;;8.88;63.15
84904;BME280;75168;52.096;5.214;2024-02-23T00:21:29;98730.59;;;8.94;63.26
84904;BME280;75168;52.096;5.214;2024-02-23T00:23:54;98736.56;;;9.01;63.14
84904;BME280;75168;52.096;5.214;2024-02-23T00:26:20;98744.25;;;9.07;62.93
84904;BME280;75168;52.096;5.214;2024-02-23T00:28:45;98736.38;;;9.13;63.00
84904;BME280;75168;52.096;5.214;2024-02-23T00:31:11;98733.69;;;9.18;62.75
84904;BME280;75168;52.096;5.214;2024-02-23T00:33:37;98733.63;;;9.22;62.76
84904;BME280;75168;52.096;5.214;2024-02-23T00:36:03;98743.06;;;9.28;62.66
84904;BME280;75168;52.096;5.214;2024-02-23T00:38:28;98736.09;;;9.31;62.65
84904;BME280;75168;52.096;5.214;2024-02-23T00:40:54;98749.00;;;9.38;62.56
84904;BME280;75168;52.096;5.214;2024-02-23T00:43:19;98751.53;;;9.41;62.36
84904;BME280;75168;52.096;5.214;2024-02-23T00:45:48;98748.91;;;9.44;62.46
84904;BME280;75168;52.096;5.214;2024-02-23T00:48:14;98748.84;;;9.47;62.41
84904;BME280;75168;52.096;5.214;2024-02-23T00:50:39;98753.16;;;9.48;62.39
84904;BME280;75168;52.096;5.214;2024-02-23T00:53:05;98764.34;;;9.53;62.27
84904;BME280;75168;52.096;5.214;2024-02-23T00:55:30;98773.00;;;9.53;61.83
84904;BME280;75168;52.096;5.214;2024-02-23T00:57:56;98786.03;;;9.53;61.87
84904;BME280;75168;52.096;5.214;2024-02-23T01:00:21;98797.28;;;9.56;61.73
84904;BME280;75168;52.096;5.214;2024-02-23T01:02:47;98801.63;;;9.53;61.58
84904;BME280;75168;52.096;5.214;2024-02-23T01:05:13;98799.97;;;9.51;61.05
84904;BME280;75168;52.096;5.214;2024-02-23T01:07:46;98791.38;;;9.46;60.63
84904;BME280;75168;52.096;5.214;2024-02-23T01:10:12;98799.31;;;9.37;60.45
84904;BME280;75168;52.096;5.214;2024-02-23T01:12:37;98806.38;;;9.28;60.54
84904;BME280;75168;52.096;5.214;2024-02-23T01:15:03;98798.66;;;9.22;60.39
84904;BME280;75168;52.096;5.214;2024-02-23T01:17:29;98803.91;;;9.18;60.34
84904;BME280;75168;52.096;5.214;2024-02-23T01:19:54;98808.31;;;9.12;60.25
84904;BME280;75168;52.096;5.214;2024-02-23T01:22:20;98821.41;;;9.09;60.42
84904;BME280;75168;52.096;5.214;2024-02-23T01:24:45;98832.63;;;9.11;60.80
84904;BME280;75168;52.096;5.214;2024-02-23T01:27:11;98841.28;;;9.12;60.78
84904;BME280;75168;52.096;5.214;2024-02-23T01:29:37;98830.00;;;9.13;60.77
84904;BME280;75168;52.096;5.214;2024-02-23T01:32:02;98828.25;;;9.13;60.81
84904;BME280;75168;52.096;5.214;2024-02-23T01:34:28;98836.09;;;9.12;60.86
84904;BME280;75168;52.096;5.214;2024-02-23T01:36:54;98843.03;;;9.11;60.98
84904;BME280;75168;52.096;5.214;2024-02-23T01:39:20;98843.91;;;9.10;61.08
84904;BME280;75168;52.096;5.214;2024-02-23T01:41:48;98855.13;;;9.14;61.17
84904;BME280;75168;52.096;5.214;2024-02-23T01:44:14;98843.84;;;9.17;61.41
84904;BME280;75168;52.096;5.214;2024-02-23T01:46:43;98844.66;;;9.19;61.40
84904;BME280;75168;52.096;5.214;2024-02-23T01:49:09;98843.75;;;9.23;61.51
84904;BME280;75168;52.096;5.214;2024-02-23T01:51:35;98835.88;;;9.27;61.61
84904;BME280;75168;52.096;5.214;2024-02-23T01:54:01;98843.66;;;9.29;61.91
84904;BME280;75168;52.096;5.214;2024-02-23T01:56:28;98849.66;;;9.34;61.54
84904;BME280;75168;52.096;5.214;2024-02-23T01:58:55;98856.56;;;9.37;61.59
84904;BME280;75168;52.096;5.214;2024-02-23T02:01:20;98857.38;;;9.39;61.53
84904;BME280;75168;52.096;5.214;2024-02-23T02:03:46;98854.78;;;9.40;61.44
84904;BME280;75168;52.096;5.214;2024-02-23T02:06:12;98850.41;;;9.41;61.55
84904;BME280;75168;52.096;5.214;2024-02-23T02:08:38;98858.19;;;9.44;61.59
84904;BME280;75168;52.096;5.214;2024-02-23T02:11:03;98866.84;;;9.44;61.41
84904;BME280;75168;52.096;5.214;2024-02-23T02:13:29;98872.03;;;9.46;61.53
84904;BME280;75168;52.096;5.214;2024-02-23T02:15:55;98875.47;;;9.46;61.42
84904;BME280;75168;52.096;5.214;2024-02-23T02:18:21;98872.00;;;9.47;61.27
84904;BME280;75168;52.096;5.214;2024-02-23T02:20:56;98869.44;;;9.46;61.36
84904;BME280;75168;52.096;5.214;2024-02-23T02:23:23;98867.66;;;9.48;61.32
84904;BME280;75168;52.096;5.214;2024-02-23T02:25:56;98868.56;;;9.47;61.09
84904;BME280;75168;52.096;5.214;2024-02-23T02:28:22;98879.81;;;9.49;61.38
84904;BME280;75168;52.096;5.214;2024-02-23T02:30:49;98872.00;;;9.49;61.14
84904;BME280;75168;52.096;5.214;2024-02-23T02:33:14;98881.56;;;9.47;61.27
84904;BME280;75168;52.096;5.214;2024-02-23T02:35:42;98879.84;;;9.46;61.17
84904;BME280;75168;52.096;5.214;2024-02-23T02:38:08;98880.75;;;9.45;61.17
84904;BME280;75168;52.096;5.214;2024-02-23T02:40:34;98878.16;;;9.43;61.21
84904;BME280;75168;52.096;5.214;2024-02-23T02:42:59;98877.31;;;9.41;60.99
84904;BME280;75168;52.096;5.214;2024-02-23T02:45:24;98878.22;;;9.39;61.07
84904;BME280;75168;52.096;5.214;2024-02-23T02:47:50;98879.97;;;9.37;61.21
84904;BME280;75168;52.096;5.214;2024-02-23T02:50:16;98878.25;;;9.36;61.06
84904;BME280;75168;52.096;5.214;2024-02-23T02:52:42;98883.44;;;9.36;60.96
84904;BME280;75168;52.096;5.214;2024-02-23T02:55:07;98886.94;;;9.34;61.15
84904;BME280;75168;52.096;5.214;2024-02-23T02:57:33;98893.91;;;9.32;60.94
84904;BME280;75168;52.096;5.214;2024-02-23T03:00:02;98897.38;;;9.31;60.84
84904;BME280;75168;52.096;5.214;2024-02-23T03:02:31;98900.00;;;9.31;60.95
84904;BME280;75168;52.096;5.214;2024-02-23T03:04:56;98898.28;;;9.30;61.27
84904;BME280;75168;52.096;5.214;2024-02-23T03:07:22;98900.00;;;9.30;61.11
84904;BME280;75168;52.096;5.214;2024-02-23T03:09:47;98891.38;;;9.28;60.94
84904;BME280;75168;52.096;5.214;2024-02-23T03:12:14;98905.25;;;9.27;60.91
84904;BME280;75168;52.096;5.214;2024-02-23T03:14:40;98909.66;;;9.22;60.67
84904;BME280;75168;52.096;5.214;2024-02-23T03:17:07;98906.25;;;9.18;60.45
84904;BME280;75168;52.096;5.214;2024-02-23T03:19:32;98905.38;;;9.16;60.77
84904;BME280;75168;52.096;5.214;2024-02-23T03:21:58;98899.34;;;9.14;60.69
84904;BME280;75168;52.096;5.214;2024-02-23T03:24:23;98913.25;;;9.11;60.85
84904;BME280;75168;52.096;5.214;2024-02-23T03:26:49;98913.31;;;9.07;60.68
84904;BME280;75168;52.096;5.214;2024-02-23T03:29:14;98917.69;;;9.03;60.58
84904;BME280;75168;52.096;5.214;2024-02-23T03:31:41;98920.34;;;8.99;60.60
84904;BME280;75168;52.096;5.214;2024-02-23T03:34:09;98925.59;;;8.94;60.34
84904;BME280;75168;52.096;5.214;2024-02-23T03:36:34;98923.91;;;8.91;60.67
84904;BME280;75168;52.096;5.214;2024-02-23T03:39:01;98926.53;;;8.88;61.00
84904;BME280;75168;52.096;5.214;2024-02-23T03:41:27;98918.75;;;8.87;60.89
84904;BME280;75168;52.096;5.214;2024-02-23T03:43:52;98936.13;;;8.85;61.00
84904;BME280;75168;52.096;5.214;2024-02-23T03:46:18;98936.97;;;8.84;60.94
84904;BME280;75168;52.096;5.214;2024-02-23T03:48:45;98938.72;;;8.83;61.01
84904;BME280;75168;52.096;5.214;2024-02-23T03:51:13;98937.00;;;8.82;61.20
84904;BME280;75168;52.096;5.214;2024-02-23T03:53:38;98929.19;;;8.82;61.02
84904;BME280;75168;52.096;5.214;2024-02-23T03:56:04;98941.34;;;8.82;61.07
84904;BME280;75168;52.096;5.214;2024-02-23T03:58:29;98950.88;;;8.83;61.17
84904;BME280;75168;52.096;5.214;2024-02-23T04:00:55;98941.31;;;8.83;61.33
84904;BME280;75168;52.096;5.214;2024-02-23T04:03:21;98938.72;;;8.83;60.99
84904;BME280;75168;52.096;5.214;2024-02-23T04:05:46;98946.53;;;8.83;61.00
84904;BME280;75168;52.096;5.214;2024-02-23T04:08:12;98945.69;;;8.81;60.97
84904;BME280;75168;52.096;5.214;2024-02-23T04:10:37;98954.34;;;8.80;61.04
84904;BME280;75168;52.096;5.214;2024-02-23T04:13:03;98950.91;;;8.80;61.00
84904;BME280;75168;52.096;5.214;2024-02-23T04:15:28;98959.56;;;8.79;60.99
84904;BME280;75168;52.096;5.214;2024-02-23T04:17:54;98960.47;;;8.76;61.10
84904;BME280;75168;52.096;5.214;2024-02-23T04:20:19;98959.63;;;8.74;61.04
84904;BME280;75168;52.096;5.214;2024-02-23T04:22:45;98960.50;;;8.73;61.11
84904;BME280;75168;52.096;5.214;2024-02-23T04:25:11;98956.16;;;8.73;61.13
84904;BME280;75168;52.096;5.214;2024-02-23T04:27:37;98950.97;;;8.72;60.98
84904;BME280;75168;52.096;5.214;2024-02-23T04:30:06;98965.75;;;8.70;61.09
84904;BME280;75168;52.096;5.214;2024-02-23T04:32:31;98961.41;;;8.69;61.24
84904;BME280;75168;52.096;5.214;2024-02-23T04:34:57;98963.16;;;8.67;61.32
84904;BME280;75168;52.096;5.214;2024-02-23T04:37:23;98968.34;;;8.67;61.21
84904;BME280;75168;52.096;5.214;2024-02-23T04:39:48;98970.09;;;8.66;61.12
84904;BME280;75168;52.096;5.214;2024-02-23T04:42:14;98977.03;;;8.63;61.21
84904;BME280;75168;52.096;5.214;2024-02-23T04:44:41;98980.53;;;8.62;61.32
84904;BME280;75168;52.096;5.214;2024-02-23T04:47:09;98971.00;;;8.62;61.35
84904;BME280;75168;52.096;5.214;2024-02-23T04:49:35;98977.94;;;8.62;61.60
84904;BME280;75168;52.096;5.214;2024-02-23T04:52:00;98975.34;;;8.62;61.90
84904;BME280;75168;52.096;5.214;2024-02-23T04:54:26;98977.94;;;8.63;61.64
84904;BME280;75168;52.096;5.214;2024-02-23T04:56:52;98983.97;;;8.64;61.79
84904;BME280;75168;52.096;5.214;2024-02-23T04:59:17;98976.16;;;8.65;61.85
84904;BME280;75168;52.096;5.214;2024-02-23T05:01:43;98977.00;;;8.70;61.77
84904;BME280;75168;52.096;5.214;2024-02-23T05:04:09;98976.97;;;8.72;61.79
84904;BME280;75168;52.096;5.214;2024-02-23T05:06:37;98971.78;;;8.73;61.63
84904;BME280;75168;52.096;5.214;2024-02-23T05:09:02;98978.66;;;8.76;61.81
84904;BME280;75168;52.096;5.214;2024-02-23T05:11:28;98963.06;;;8.76;61.51
84904;BME280;75168;52.096;5.214;2024-02-23T05:13:53;98972.53;;;8.80;61.77
84904;BME280;75168;52.096;5.214;2024-02-23T05:16:19;98967.34;;;8.82;61.68
84904;BME280;75168;52.096;5.214;2024-02-23T05:18:44;98966.47;;;8.84;61.72
84904;BME280;75168;52.096;5.214;2024-02-23T05:21:14;98962.09;;;8.88;61.47
84904;BME280;75168;52.096;5.214;2024-02-23T05:23:39;98965.53;;;8.88;61.62
84904;BME280;75168;52.096;5.214;2024-02-23T05:26:05;98971.56;;;8.92;61.66
84904;BME280;75168;52.096;5.214;2024-02-23T05:28:30;98971.56;;;8.93;61.62
84904;BME280;75168;52.096;5.214;2024-02-23T05:30:55;98976.69;;;8.96;61.55
84904;BME280;75168;52.096;5.214;2024-02-23T05:33:22;98968.03;;;8.99;61.41
84904;BME280;75168;52.096;5.214;2024-02-23T05:35:48;98978.41;;;9.01;61.49
84904;BME280;75168;52.096;5.214;2024-02-23T05:38:16;98970.59;;;9.01;61.48
84904;BME280;75168;52.096;5.214;2024-02-23T05:40:42;98978.38;;;9.04;61.35
84904;BME280;75168;52.096;5.214;2024-02-23T05:43:08;98977.50;;;9.05;61.42
84904;BME280;75168;52.096;5.214;2024-02-23T05:45:34;98977.47;;;9.06;61.28
84904;BME280;75168;52.096;5.214;2024-02-23T05:47:59;98974.88;;;9.06;61.13
84904;BME280;75168;52.096;5.214;2024-02-23T05:50:25;98971.41;;;9.07;61.23
84904;BME280;75168;52.096;5.214;2024-02-23T05:52:50;98976.59;;;9.07;61.39
84904;BME280;75168;52.096;5.214;2024-02-23T05:55:18;98964.47;;;9.08;61.22
84904;BME280;75168;52.096;5.214;2024-02-23T05:57:44;98971.41;;;9.07;61.13
84904;BME280;75168;52.096;5.214;2024-02-23T06:00:10;98964.47;;;9.08;61.40
84904;BME280;75168;52.096;5.214;2024-02-23T06:02:38;98964.44;;;9.09;61.31
84904;BME280;75168;52.096;5.214;2024-02-23T06:05:04;98972.25;;;9.09;61.11
84904;BME280;75168;52.096;5.214;2024-02-23T06:07:33;98969.66;;;9.08;61.04
84904;BME280;75168;52.096;5.214;2024-02-23T06:10:00;98972.28;;;9.06;61.26
84904;BME280;75168;52.096;5.214;2024-02-23T06:12:26;98975.75;;;9.05;60.96
84904;BME280;75168;52.096;5.214;2024-02-23T06:14:52;98977.50;;;9.03;61.11
84904;BME280;75168;52.096;5.214;2024-02-23T06:17:17;98982.72;;;9.02;61.15
84904;BME280;75168;52.096;5.214;2024-02-23T06:19:43;98981.00;;;9.02;61.22
84904;BME280;75168;52.096;5.214;2024-02-23T06:22:09;98984.47;;;9.01;61.13
84904;BME280;75168;52.096;5.214;2024-02-23T06:24:36;98984.47;;;9.01;61.16
84904;BME280;75168;52.096;5.214;2024-02-23T06:27:02;98991.38;;;9.04;61.25
84904;BME280;75168;52.096;5.214;2024-02-23T06:29:29;98994.84;;;9.04;61.35
84904;BME280;75168;52.096;5.214;2024-02-23T06:31:55;98990.50;;;9.05;61.18
84904;BME280;75168;52.096;5.214;2024-02-23T06:34:20;98990.47;;;9.06;61.13
84904;BME280;75168;52.096;5.214;2024-02-23T06:36:46;98983.53;;;9.07;61.10
84904;BME280;75168;52.096;5.214;2024-02-23T06:39:12;98986.13;;;9.07;61.01
84904;BME280;75168;52.096;5.214;2024-02-23T06:41:39;98987.84;;;9.09;61.22
84904;BME280;75168;52.096;5.214;2024-02-23T06:44:12;98986.94;;;9.12;60.83
84904;BME280;75168;52.096;5.214;2024-02-23T06:46:38;98982.56;;;9.14;61.03
84904;BME280;75168;52.096;5.214;2024-02-23T06:49:04;98985.16;;;9.15;60.77
84904;BME280;75168;52.096;5.214;2024-02-23T06:51:31;98988.59;;;9.19;60.95
84904;BME280;75168;52.096;5.214;2024-02-23T06:54:00;98985.97;;;9.21;60.63
84904;BME280;75168;52.096;5.214;2024-02-23T06:56:28;98983.38;;;9.21;60.73
84904;BME280;75168;52.096;5.214;2024-02-23T06:58:53;98978.16;;;9.22;60.57
84904;BME280;75168;52.096;5.214;2024-02-23T07:01:22;98985.94;;;9.24;60.69
84904;BME280;75168;52.096;5.214;2024-02-23T07:03:48;98979.81;;;9.28;60.59
84904;BME280;75168;52.096;5.214;2024-02-23T07:06:16;98984.16;;;9.30;60.74
84904;BME280;75168;52.096;5.214;2024-02-23T07:08:44;98984.16;;;9.30;60.46
84904;BME280;75168;52.096;5.214;2024-02-23T07:11:10;98979.78;;;9.32;60.49
84904;BME280;75168;52.096;5.214;2024-02-23T07:13:36;98982.31;;;9.36;60.65
84904;BME280;75168;52.096;5.214;2024-02-23T07:16:02;98992.72;;;9.37;60.42
84904;BME280;75168;52.096;5.214;2024-02-23T07:18:28;98992.69;;;9.39;60.29
84904;BME280;75168;52.096;5.214;2024-02-23T07:20:54;98997.03;;;9.41;60.19
84904;BME280;75168;52.096;5.214;2024-02-23T07:23:19;98996.13;;;9.41;60.16
84904;BME280;75168;52.096;5.214;2024-02-23T07:25:47;99000.47;;;9.43;60.13
84904;BME280;75168;52.096;5.214;2024-02-23T07:28:16;98992.63;;;9.45;59.75
84904;BME280;75168;52.096;5.214;2024-02-23T07:30:45;98990.88;;;9.47;59.86
84904;BME280;75168;52.096;5.214;2024-02-23T07:33:11;98983.00;;;9.50;59.88
84904;BME280;75168;52.096;5.214;2024-02-23T07:35:37;98983.81;;;9.53;59.89
84904;BME280;75168;52.096;5.214;2024-02-23T07:38:03;98974.22;;;9.57;59.93
84904;BME280;75168;52.096;5.214;2024-02-23T07:40:29;98974.19;;;9.60;59.83
84904;BME280;75168;52.096;5.214;2024-02-23T07:42:57;98979.38;;;9.62;59.50
84904;BME280;75168;52.096;5.214;2024-02-23T07:45:22;98968.09;;;9.63;59.54
84904;BME280;75168;52.096;5.214;2024-02-23T07:47:51;98971.53;;;9.66;59.29
84904;BME280;75168;52.096;5.214;2024-02-23T07:50:17;98966.31;;;9.66;59.60
84904;BME280;75168;52.096;5.214;2024-02-23T07:52:49;98963.66;;;9.69;59.41
84904;BME280;75168;52.096;5.214;2024-02-23T07:55:18;98963.66;;;9.69;59.42
84904;BME280;75168;52.096;5.214;2024-02-23T07:57:44;98962.78;;;9.70;59.40
84904;BME280;75168;52.096;5.214;2024-02-23T08:00:22;98960.19;;;9.69;59.50
84904;BME280;75168;52.096;5.214;2024-02-23T08:02:50;98958.50;;;9.68;59.25
84904;BME280;75168;52.096;5.214;2024-02-23T08:05:16;98961.09;;;9.68;59.26
84904;BME280;75168;52.096;5.214;2024-02-23T08:07:42;98949.81;;;9.67;59.16
84904;BME280;75168;52.096;5.214;2024-02-23T08:10:08;98952.41;;;9.67;59.24
84904;BME280;75168;52.096;5.214;2024-02-23T08:12:38;98941.97;;;9.69;58.73
84904;BME280;75168;52.096;5.214;2024-02-23T08:15:04;98949.81;;;9.67;58.83
84904;BME280;75168;52.096;5.214;2024-02-23T08:17:30;98948.09;;;9.68;59.20
84904;BME280;75168;52.096;5.214;2024-02-23T08:19:55;98947.16;;;9.70;59.15
84904;BME280;75168;52.096;5.214;2024-02-23T08:22:21;98946.31;;;9.71;59.06
84904;BME280;75168;52.096;5.214;2024-02-23T08:24:52;98942.78;;;9.72;59.16
84904;BME280;75168;52.096;5.214;2024-02-23T08:27:18;98942.78;;;9.72;59.05
84904;BME280;75168;52.096;5.214;2024-02-23T08:29:44;98941.03;;;9.73;59.10
84904;BME280;75168;52.096;5.214;2024-02-23T08:32:10;98929.75;;;9.76;58.88
84904;BME280;75168;52.096;5.214;2024-02-23T08:34:35;98923.69;;;9.74;59.04
84904;BME280;75168;52.096;5.214;2024-02-23T08:37:01;98923.69;;;9.75;58.92
84904;BME280;75168;52.096;5.214;2024-02-23T08:39:27;98924.53;;;9.76;59.03
84904;BME280;75168;52.096;5.214;2024-02-23T08:41:52;98914.13;;;9.76;59.00
84904;BME280;75168;52.096;5.214;2024-02-23T08:44:18;98927.13;;;9.77;58.86
84904;BME280;75168;52.096;5.214;2024-02-23T08:46:44;98932.38;;;9.74;58.80
84904;BME280;75168;52.096;5.214;2024-02-23T08:49:10;98936.75;;;9.70;58.98
84904;BME280;75168;52.096;5.214;2024-02-23T08:51:35;98938.53;;;9.68;58.99
84904;BME280;75168;52.096;5.214;2024-02-23T08:54:01;98944.59;;;9.67;59.30
84904;BME280;75168;52.096;5.214;2024-02-23T08:56:30;98945.41;;;9.71;59.78
84904;BME280;75168;52.096;5.214;2024-02-23T08:58:57;98934.97;;;9.72;59.37
84904;BME280;75168;52.096;5.214;2024-02-23T09:01:23;98940.16;;;9.74;59.06
84904;BME280;75168;52.096;5.214;2024-02-23T09:03:48;98946.22;;;9.75;59.20
84904;BME280;75168;52.096;5.214;2024-02-23T09:06:14;98934.09;;;9.75;59.13
84904;BME280;75168;52.096;5.214;2024-02-23T09:08:40;98941.84;;;9.77;59.27
84904;BME280;75168;52.096;5.214;2024-02-23T09:11:06;98943.59;;;9.76;58.88
84904;BME280;75168;52.096;5.214;2024-02-23T09:13:32;98945.34;;;9.77;58.86
84904;BME280;75168;52.096;5.214;2024-02-23T09:15:57;98948.81;;;9.78;59.23
84904;BME280;75168;52.096;5.214;2024-02-23T09:18:23;98953.13;;;9.79;58.89
84904;BME280;75168;52.096;5.214;2024-02-23T09:20:48;98949.63;;;9.80;59.32
84904;BME280;75168;52.096;5.214;2024-02-23T09:23:14;98959.19;;;9.81;59.25
84904;BME280;75168;52.096;5.214;2024-02-23T09:25:40;98955.66;;;9.82;59.15
84904;BME280;75168;52.096;5.214;2024-02-23T09:28:05;98953.91;;;9.84;59.18
84904;BME280;75168;52.096;5.214;2024-02-23T09:30:31;98951.28;;;9.85;59.19
84904;BME280;75168;52.096;5.214;2024-02-23T09:32:57;98950.38;;;9.88;59.26
84904;BME280;75168;52.096;5.214;2024-02-23T09:35:23;98973.78;;;9.91;59.12
84904;BME280;75168;52.096;5.214;2024-02-23T09:37:48;98962.44;;;9.94;59.06
84904;BME280;75168;52.096;5.214;2024-02-23T09:40:15;98965.03;;;9.95;59.13
84904;BME280;75168;52.096;5.214;2024-02-23T09:42:45;98972.81;;;9.98;58.99
84904;BME280;75168;52.096;5.214;2024-02-23T09:45:14;98970.16;;;10.00;59.01
84904;BME280;75168;52.096;5.214;2024-02-23T09:47:44;98972.75;;;10.01;59.00
84904;BME280;75168;52.096;5.214;2024-02-23T09:50:10;98968.38;;;10.03;58.77
84904;BME280;75168;52.096;5.214;2024-02-23T09:52:37;98977.91;;;10.06;59.08
84904;BME280;75168;52.096;5.214;2024-02-23T09:55:03;98963.91;;;10.12;59.26
84904;BME280;75168;52.096;5.214;2024-02-23T09:57:33;98966.47;;;10.16;59.19
84904;BME280;75168;52.096;5.214;2024-02-23T09:59:58;98972.38;;;10.26;59.27
84904;BME280;75168;52.096;5.214;2024-02-23T10:02:25;98965.38;;;10.31;59.20
84904;BME280;75168;52.096;5.214;2024-02-23T10:04:51;98960.03;;;10.37;58.93
84904;BME280;75168;52.096;5.214;2024-02-23T10:07:17;98961.75;;;10.41;58.73
84904;BME280;75168;52.096;5.214;2024-02-23T10:09:43;98959.88;;;10.48;58.75
84904;BME280;75168;52.096;5.214;2024-02-23T10:12:08;98971.97;;;10.52;58.67
84904;BME280;75168;52.096;5.214;2024-02-23T10:14:34;98969.31;;;10.55;58.60
84904;BME280;75168;52.096;5.214;2024-02-23T10:16:59;98980.56;;;10.59;58.63
84904;BME280;75168;52.096;5.214;2024-02-23T10:19:27;98983.97;;;10.62;58.47
84904;BME280;75168;52.096;5.214;2024-02-23T10:21:55;98988.28;;;10.63;58.31
84904;BME280;75168;52.096;5.214;2024-02-23T10:24:22;98977.84;;;10.65;58.41
84904;BME280;75168;52.096;5.214;2024-02-23T10:26:48;98984.81;;;10.64;58.11
84904;BME280;75168;52.096;5.214;2024-02-23T10:29:13;98981.38;;;10.62;58.06
84904;BME280;75168;52.096;5.214;2024-02-23T10:31:40;99004.84;;;10.61;58.22
84904;BME280;75168;52.096;5.214;2024-02-23T10:34:08;99013.56;;;10.58;58.35
84904;BME280;75168;52.096;5.214;2024-02-23T10:36:41;98997.13;;;10.55;58.23
84904;BME280;75168;52.096;5.214;2024-02-23T10:39:08;99004.94;;;10.55;58.19
84904;BME280;75168;52.096;5.214;2024-02-23T10:41:39;99016.19;;;10.57;58.56
84904;BME280;75168;52.096;5.214;2024-02-23T10:44:10;99018.78;;;10.58;58.47
84904;BME280;75168;52.096;5.214;2024-02-23T10:46:37;99012.69;;;10.59;58.40
84904;BME280;75168;52.096;5.214;2024-02-23T10:49:02;99014.41;;;10.60;58.39
84904;BME280;75168;52.096;5.214;2024-02-23T10:51:28;99022.19;;;10.62;58.33
84904;BME280;75168;52.096;5.214;2024-02-23T10:53:55;99022.19;;;10.63;58.17
84904;BME280;75168;52.096;5.214;2024-02-23T10:56:21;99021.22;;;10.67;58.12
84904;BME280;75168;52.096;5.214;2024-02-23T10:58:48;99023.78;;;10.71;58.13
84904;BME280;75168;52.096;5.214;2024-02-23T11:01:14;99022.00;;;10.74;58.22
84904;BME280;75168;52.096;5.214;2024-02-23T11:03:45;99021.03;;;10.80;58.18
84904;BME280;75168;52.096;5.214;2024-02-23T11:06:19;99033.13;;;10.85;58.12
84904;BME280;75168;52.096;5.214;2024-02-23T11:08:47;99032.16;;;10.91;57.78
84904;BME280;75168;52.096;5.214;2024-02-23T11:11:15;99038.19;;;10.93;57.73
84904;BME280;75168;52.096;5.214;2024-02-23T11:13:45;99019.81;;;10.99;57.82
84904;BME280;75168;52.096;5.214;2024-02-23T11:16:22;99041.44;;;11.06;57.73
84904;BME280;75168;52.096;5.214;2024-02-23T11:18:48;99029.13;;;11.14;57.91
84904;BME280;75168;52.096;5.214;2024-02-23T11:21:16;99038.56;;;11.21;57.88
84904;BME280;75168;52.096;5.214;2024-02-23T11:23:49;99034.09;;;11.27;57.53
84904;BME280;75168;52.096;5.214;2024-02-23T11:26:18;99039.25;;;11.30;57.58
84904;BME280;75168;52.096;5.214;2024-02-23T11:28:51;99043.44;;;11.38;57.81
84904;BME280;75168;52.096;5.214;2024-02-23T11:31:23;99038.09;;;11.45;57.56
84904;BME280;75168;52.096;5.214;2024-02-23T11:33:53;99040.53;;;11.54;57.44
84904;BME280;75168;52.096;5.214;2024-02-23T11:36:23;99040.47;;;11.57;57.10
84904;BME280;75168;52.096;5.214;2024-02-23T11:38:53;99036.88;;;11.62;56.79
84904;BME280;75168;52.096;5.214;2024-02-23T11:41:22;99040.31;;;11.65;56.71
84904;BME280;75168;52.096;5.214;2024-02-23T11:43:51;99044.69;;;11.64;57.11
84904;BME280;75168;52.096;5.214;2024-02-23T11:46:17;99053.31;;;11.68;56.46
84904;BME280;75168;52.096;5.214;2024-02-23T11:48:43;99049.81;;;11.67;56.48
84904;BME280;75168;52.096;5.214;2024-02-23T11:51:19;99053.25;;;11.69;56.50
84904;BME280;75168;52.096;5.214;2024-02-23T11:53:44;99055.81;;;11.72;56.45
84904;BME280;75168;52.096;5.214;2024-02-23T11:56:15;99068.81;;;11.75;56.31
84904;BME280;75168;52.096;5.214;2024-02-23T11:58:44;99049.59;;;11.78;56.20
84904;BME280;75168;52.096;5.214;2024-02-23T12:01:10;99060.03;;;11.78;55.89
84904;BME280;75168;52.096;5.214;2024-02-23T12:03:35;99061.84;;;11.74;55.89
84904;BME280;75168;52.096;5.214;2024-02-23T12:06:10;99066.25;;;11.72;55.55
84904;BME280;75168;52.096;5.214;2024-02-23T12:08:36;99067.09;;;11.73;55.56
84904;BME280;75168;52.096;5.214;2024-02-23T12:11:08;99062.75;;;11.73;55.88
84904;BME280;75168;52.096;5.214;2024-02-23T12:13:36;99070.47;;;11.78;55.91
84904;BME280;75168;52.096;5.214;2024-02-23T12:16:02;99058.31;;;11.78;55.34
84904;BME280;75168;52.096;5.214;2024-02-23T12:18:33;99053.94;;;11.79;55.46
84904;BME280;75168;52.096;5.214;2024-02-23T12:21:02;99066.00;;;11.85;55.26
84904;BME280;75168;52.096;5.214;2024-02-23T12:23:45;99072.13;;;11.84;55.52
84904;BME280;75168;52.096;5.214;2024-02-23T12:26:17;99077.22;;;11.90;55.21
84904;BME280;75168;52.096;5.214;2024-02-23T12:28:49;99065.81;;;11.95;55.17
84904;BME280;75168;52.096;5.214;2024-02-23T12:31:14;99076.19;;;11.98;55.25
84904;BME280;75168;52.096;5.214;2024-02-23T12:33:40;99076.16;;;12.00;54.91
84904;BME280;75168;52.096;5.214;2024-02-23T12:36:07;99083.97;;;12.02;54.63
84904;BME280;75168;52.096;5.214;2024-02-23T12:38:36;99092.69;;;12.00;54.25
84904;BME280;75168;52.096;5.214;2024-02-23T12:41:02;99076.16;;;12.00;54.38
84904;BME280;75168;52.096;5.214;2024-02-23T12:43:28;99087.47;;;12.00;54.46
84904;BME280;75168;52.096;5.214;2024-02-23T12:45:55;99085.72;;;12.01;54.38
84904;BME280;75168;52.096;5.214;2024-02-23T12:48:21;99088.31;;;12.01;54.09
84904;BME280;75168;52.096;5.214;2024-02-23T12:50:48;99096.13;;;12.03;54.12
84904;BME280;75168;52.096;5.214;2024-02-23T12:56:09;99091.72;;;12.05;53.82
84904;BME280;75168;52.096;5.214;2024-02-23T12:58:37;99098.69;;;12.06;53.90
84904;BME280;75168;52.096;5.214;2024-02-23T13:01:03;99096.91;;;12.08;53.89
84904;BME280;75168;52.096;5.214;2024-02-23T13:03:31;99093.28;;;12.13;54.36
84904;BME280;75168;52.096;5.214;2024-02-23T13:05:57;99088.69;;;12.25;54.57
84904;BME280;75168;52.096;5.214;2024-02-23T13:08:24;99090.22;;;12.33;54.23